sensor_id;sensor_type;location;lat;lon;timestamp;P1;durP1;ratioP1;P2;durP2;ratioP2
48629;SDS011;34426;52.180;4.462;2024-03-08T00:00:44;60.45;;;33.45;;
48629;SDS011;34426;52.180;4.462;2024-03-08T00:03:09;55.30;;;32.78;;
48629;SDS011;34426;52.180;4.462;2024-03-08T00:05:35;53.58;;;32.08;;
48629;SDS011;34426;52.180;4.462;2024-03-08T00:08:02;49.38;;;30.88;;
48629;SDS011;34426;52.180;4.462;2024-03-08T00:10:28;59.08;;;32.22;;
48629;SDS011;34426;52.180;4.462;2024-03-08T00:12:54;55.22;;;33.00;;
48629;SDS011;34426;52.180;4.462;2024-03-08T00:15:19;54.63;;;32.22;;
48629;SDS011;34426;52.180;4.462;2024-03-08T00:17:45;58.35;;;32.78;;
48629;SDS011;34426;52.180;4.462;2024-03-08T00:20:11;54.60;;;30.50;;
48629;SDS011;34426;52.180;4.462;2024-03-08T00:22:37;54.15;;;29.77;;
48629;SDS011;34426;52.180;4.462;2024-03-08T00:25:05;50.78;;;31.63;;
48629;SDS011;34426;52.180;4.462;2024-03-08T00:27:33;54.60;;;31.75;;
48629;SDS011;34426;52.180;4.462;2024-03-08T00:29:58;54.42;;;31.33;;
48629;SDS011;34426;52.180;4.462;2024-03-08T00:32:24;52.78;;;30.83;;
48629;SDS011;34426;52.180;4.462;2024-03-08T00:34:49;55.63;;;30.60;;
48629;SDS011;34426;52.180;4.462;2024-03-08T00:37:15;51.45;;;32.75;;
48629;SDS011;34426;52.180;4.462;2024-03-08T00:39:40;52.72;;;32.08;;
48629;SDS011;34426;52.180;4.462;2024-03-08T00:42:07;53.70;;;31.80;;
48629;SDS011;34426;52.180;4.462;2024-03-08T00:44:33;54.72;;;31.13;;
48629;SDS011;34426;52.180;4.462;2024-03-08T00:46:59;54.03;;;31.85;;
48629;SDS011;34426;52.180;4.462;2024-03-08T00:49:24;52.00;;;31.80;;
48629;SDS011;34426;52.180;4.462;2024-03-08T00:51:50;49.28;;;30.33;;
48629;SDS011;34426;52.180;4.462;2024-03-08T00:54:15;51.42;;;32.75;;
48629;SDS011;34426;52.180;4.462;2024-03-08T00:56:40;51.28;;;32.85;;
48629;SDS011;34426;52.180;4.462;2024-03-08T00:59:08;49.00;;;30.08;;
48629;SDS011;34426;52.180;4.462;2024-03-08T01:01:33;50.17;;;30.45;;
48629;SDS011;34426;52.180;4.462;2024-03-08T01:03:58;53.50;;;32.22;;
48629;SDS011;34426;52.180;4.462;2024-03-08T01:06:24;58.60;;;32.45;;
48629;SDS011;34426;52.180;4.462;2024-03-08T01:08:49;50.40;;;30.13;;
48629;SDS011;34426;52.180;4.462;2024-03-08T01:11:15;50.42;;;31.40;;
48629;SDS011;34426;52.180;4.462;2024-03-08T01:13:40;56.85;;;31.75;;
48629;SDS011;34426;52.180;4.462;2024-03-08T01:16:07;53.35;;;31.15;;
48629;SDS011;34426;52.180;4.462;2024-03-08T01:18:33;51.63;;;30.20;;
48629;SDS011;34426;52.180;4.462;2024-03-08T01:20:58;51.88;;;31.67;;
48629;SDS011;34426;52.180;4.462;2024-03-08T01:23:24;51.22;;;30.67;;
48629;SDS011;34426;52.180;4.462;2024-03-08T01:25:49;47.83;;;28.98;;
48629;SDS011;34426;52.180;4.462;2024-03-08T01:28:14;54.25;;;30.88;;
48629;SDS011;34426;52.180;4.462;2024-03-08T01:30:40;49.58;;;29.63;;
48629;SDS011;34426;52.180;4.462;2024-03-08T01:33:07;53.97;;;31.00;;
48629;SDS011;34426;52.180;4.462;2024-03-08T01:35:32;51.88;;;30.08;;
48629;SDS011;34426;52.180;4.462;2024-03-08T01:37:58;49.70;;;30.38;;
48629;SDS011;34426;52.180;4.462;2024-03-08T01:40:23;50.95;;;30.90;;
48629;SDS011;34426;52.180;4.462;2024-03-08T01:42:49;50.63;;;30.73;;
48629;SDS011;34426;52.180;4.462;2024-03-08T01:45:14;60.40;;;32.20;;
48629;SDS011;34426;52.180;4.462;2024-03-08T01:47:40;50.03;;;32.30;;
48629;SDS011;34426;52.180;4.462;2024-03-08T01:50:07;49.90;;;29.65;;
48629;SDS011;34426;52.180;4.462;2024-03-08T01:52:33;51.22;;;31.30;;
48629;SDS011;34426;52.180;4.462;2024-03-08T01:54:59;51.60;;;30.65;;
48629;SDS011;34426;52.180;4.462;2024-03-08T01:57:26;48.17;;;31.05;;
48629;SDS011;34426;52.180;4.462;2024-03-08T01:59:52;51.42;;;31.55;;
48629;SDS011;34426;52.180;4.462;2024-03-08T02:02:18;53.20;;;31.92;;
48629;SDS011;34426;52.180;4.462;2024-03-08T02:04:44;48.25;;;30.00;;
48629;SDS011;34426;52.180;4.462;2024-03-08T02:07:11;46.20;;;29.45;;
48629;SDS011;34426;52.180;4.462;2024-03-08T02:09:36;50.08;;;30.60;;
48629;SDS011;34426;52.180;4.462;2024-03-08T02:12:02;50.40;;;30.55;;
48629;SDS011;34426;52.180;4.462;2024-03-08T02:14:28;50.70;;;31.02;;
48629;SDS011;34426;52.180;4.462;2024-03-08T02:16:54;47.25;;;29.48;;
48629;SDS011;34426;52.180;4.462;2024-03-08T02:19:19;49.00;;;30.48;;
48629;SDS011;34426;52.180;4.462;2024-03-08T02:21:46;53.35;;;30.10;;
48629;SDS011;34426;52.180;4.462;2024-03-08T02:24:12;47.05;;;30.73;;
48629;SDS011;34426;52.180;4.462;2024-03-08T02:26:37;49.47;;;31.08;;
48629;SDS011;34426;52.180;4.462;2024-03-08T02:29:03;44.28;;;29.33;;
48629;SDS011;34426;52.180;4.462;2024-03-08T02:31:29;50.33;;;30.92;;
48629;SDS011;34426;52.180;4.462;2024-03-08T02:33:54;51.13;;;30.85;;
48629;SDS011;34426;52.180;4.462;2024-03-08T02:36:20;47.13;;;30.67;;
48629;SDS011;34426;52.180;4.462;2024-03-08T02:38:47;48.60;;;31.23;;
48629;SDS011;34426;52.180;4.462;2024-03-08T02:41:12;52.60;;;30.90;;
48629;SDS011;34426;52.180;4.462;2024-03-08T02:43:38;49.28;;;31.27;;
48629;SDS011;34426;52.180;4.462;2024-03-08T02:46:04;51.03;;;31.42;;
48629;SDS011;34426;52.180;4.462;2024-03-08T02:48:29;52.90;;;32.03;;
48629;SDS011;34426;52.180;4.462;2024-03-08T02:50:55;49.53;;;31.67;;
48629;SDS011;34426;52.180;4.462;2024-03-08T02:53:20;47.95;;;31.05;;
48629;SDS011;34426;52.180;4.462;2024-03-08T02:55:47;47.45;;;30.52;;
48629;SDS011;34426;52.180;4.462;2024-03-08T02:58:13;50.65;;;32.08;;
48629;SDS011;34426;52.180;4.462;2024-03-08T03:00:38;51.35;;;29.67;;
48629;SDS011;34426;52.180;4.462;2024-03-08T03:03:04;47.08;;;31.23;;
48629;SDS011;34426;52.180;4.462;2024-03-08T03:05:30;48.58;;;31.55;;
48629;SDS011;34426;52.180;4.462;2024-03-08T03:07:55;49.08;;;31.17;;
48629;SDS011;34426;52.180;4.462;2024-03-08T03:10:21;46.72;;;31.92;;
48629;SDS011;34426;52.180;4.462;2024-03-08T03:12:48;51.83;;;30.85;;
48629;SDS011;34426;52.180;4.462;2024-03-08T03:15:14;53.25;;;30.90;;
48629;SDS011;34426;52.180;4.462;2024-03-08T03:17:39;50.60;;;31.58;;
48629;SDS011;34426;52.180;4.462;2024-03-08T03:20:06;55.42;;;31.35;;
48629;SDS011;34426;52.180;4.462;2024-03-08T03:22:32;53.08;;;31.50;;
48629;SDS011;34426;52.180;4.462;2024-03-08T03:24:57;51.83;;;31.70;;
48629;SDS011;34426;52.180;4.462;2024-03-08T03:27:24;50.20;;;30.48;;
48629;SDS011;34426;52.180;4.462;2024-03-08T03:29:51;47.97;;;31.35;;
48629;SDS011;34426;52.180;4.462;2024-03-08T03:32:16;48.70;;;31.13;;
48629;SDS011;34426;52.180;4.462;2024-03-08T03:34:42;48.67;;;29.83;;
48629;SDS011;34426;52.180;4.462;2024-03-08T03:37:07;47.53;;;31.42;;
48629;SDS011;34426;52.180;4.462;2024-03-08T03:39:33;52.75;;;32.53;;
48629;SDS011;34426;52.180;4.462;2024-03-08T03:41:58;50.05;;;30.80;;
48629;SDS011;34426;52.180;4.462;2024-03-08T03:44:24;54.78;;;31.65;;
48629;SDS011;34426;52.180;4.462;2024-03-08T03:46:50;49.85;;;32.00;;
48629;SDS011;34426;52.180;4.462;2024-03-08T03:49:16;48.00;;;32.30;;
48629;SDS011;34426;52.180;4.462;2024-03-08T03:51:42;50.05;;;32.17;;
48629;SDS011;34426;52.180;4.462;2024-03-08T03:54:07;47.03;;;31.35;;
48629;SDS011;34426;52.180;4.462;2024-03-08T03:56:33;45.95;;;32.15;;
48629;SDS011;34426;52.180;4.462;2024-03-08T03:58:59;55.90;;;33.25;;
48629;SDS011;34426;52.180;4.462;2024-03-08T04:01:24;52.63;;;33.28;;
48629;SDS011;34426;52.180;4.462;2024-03-08T04:03:51;49.10;;;33.42;;
48629;SDS011;34426;52.180;4.462;2024-03-08T04:06:17;49.38;;;31.88;;
48629;SDS011;34426;52.180;4.462;2024-03-08T04:08:42;53.10;;;31.90;;
48629;SDS011;34426;52.180;4.462;2024-03-08T04:11:08;51.03;;;31.98;;
48629;SDS011;34426;52.180;4.462;2024-03-08T04:13:33;45.05;;;32.30;;
48629;SDS011;34426;52.180;4.462;2024-03-08T04:15:59;48.47;;;31.90;;
48629;SDS011;34426;52.180;4.462;2024-03-08T04:18:24;48.78;;;32.80;;
48629;SDS011;34426;52.180;4.462;2024-03-08T04:20:51;46.92;;;32.15;;
48629;SDS011;34426;52.180;4.462;2024-03-08T04:23:16;46.72;;;32.60;;
48629;SDS011;34426;52.180;4.462;2024-03-08T04:25:42;53.95;;;33.15;;
48629;SDS011;34426;52.180;4.462;2024-03-08T04:28:07;52.50;;;34.13;;
48629;SDS011;34426;52.180;4.462;2024-03-08T04:30:33;53.25;;;33.05;;
48629;SDS011;34426;52.180;4.462;2024-03-08T04:32:58;49.90;;;32.42;;
48629;SDS011;34426;52.180;4.462;2024-03-08T04:35:24;52.65;;;33.97;;
48629;SDS011;34426;52.180;4.462;2024-03-08T04:37:51;50.30;;;34.60;;
48629;SDS011;34426;52.180;4.462;2024-03-08T04:40:16;48.55;;;34.35;;
48629;SDS011;34426;52.180;4.462;2024-03-08T04:42:42;49.58;;;34.20;;
48629;SDS011;34426;52.180;4.462;2024-03-08T04:45:08;47.72;;;33.13;;
48629;SDS011;34426;52.180;4.462;2024-03-08T04:47:34;52.83;;;32.75;;
48629;SDS011;34426;52.180;4.462;2024-03-08T04:49:59;49.60;;;34.08;;
48629;SDS011;34426;52.180;4.462;2024-03-08T04:52:25;52.67;;;34.55;;
48629;SDS011;34426;52.180;4.462;2024-03-08T04:54:52;47.70;;;32.85;;
48629;SDS011;34426;52.180;4.462;2024-03-08T04:57:17;53.45;;;33.17;;
48629;SDS011;34426;52.180;4.462;2024-03-08T04:59:43;49.72;;;33.20;;
48629;SDS011;34426;52.180;4.462;2024-03-08T05:02:08;45.45;;;32.45;;
48629;SDS011;34426;52.180;4.462;2024-03-08T05:04:34;47.72;;;33.60;;
48629;SDS011;34426;52.180;4.462;2024-03-08T05:06:59;46.35;;;33.03;;
48629;SDS011;34426;52.180;4.462;2024-03-08T05:09:25;48.75;;;32.28;;
48629;SDS011;34426;52.180;4.462;2024-03-08T05:11:51;50.95;;;35.22;;
48629;SDS011;34426;52.180;4.462;2024-03-08T05:14:17;51.15;;;33.22;;
48629;SDS011;34426;52.180;4.462;2024-03-08T05:16:42;49.63;;;33.72;;
48629;SDS011;34426;52.180;4.462;2024-03-08T05:19:08;45.83;;;32.88;;
48629;SDS011;34426;52.180;4.462;2024-03-08T05:21:33;45.25;;;33.88;;
48629;SDS011;34426;52.180;4.462;2024-03-08T05:23:59;52.97;;;32.90;;
48629;SDS011;34426;52.180;4.462;2024-03-08T05:26:24;48.55;;;34.13;;
48629;SDS011;34426;52.180;4.462;2024-03-08T05:28:51;45.47;;;33.58;;
48629;SDS011;34426;52.180;4.462;2024-03-08T05:31:20;50.45;;;35.17;;
48629;SDS011;34426;52.180;4.462;2024-03-08T05:33:45;50.80;;;34.22;;
48629;SDS011;34426;52.180;4.462;2024-03-08T05:36:11;53.35;;;34.53;;
48629;SDS011;34426;52.180;4.462;2024-03-08T05:38:36;48.22;;;35.53;;
48629;SDS011;34426;52.180;4.462;2024-03-08T05:41:02;49.13;;;34.85;;
48629;SDS011;34426;52.180;4.462;2024-03-08T05:43:28;53.45;;;34.65;;
48629;SDS011;34426;52.180;4.462;2024-03-08T05:45:55;52.75;;;35.45;;
48629;SDS011;34426;52.180;4.462;2024-03-08T05:48:20;50.83;;;35.55;;
48629;SDS011;34426;52.180;4.462;2024-03-08T05:50:46;47.15;;;34.20;;
48629;SDS011;34426;52.180;4.462;2024-03-08T05:53:13;53.92;;;36.55;;
48629;SDS011;34426;52.180;4.462;2024-03-08T05:55:39;53.63;;;34.03;;
48629;SDS011;34426;52.180;4.462;2024-03-08T05:58:05;48.22;;;34.42;;
48629;SDS011;34426;52.180;4.462;2024-03-08T06:00:30;53.83;;;35.60;;
48629;SDS011;34426;52.180;4.462;2024-03-08T06:02:57;52.85;;;35.92;;
48629;SDS011;34426;52.180;4.462;2024-03-08T06:05:23;60.05;;;36.15;;
48629;SDS011;34426;52.180;4.462;2024-03-08T06:07:48;47.22;;;34.45;;
48629;SDS011;34426;52.180;4.462;2024-03-08T06:10:14;48.35;;;35.58;;
48629;SDS011;34426;52.180;4.462;2024-03-08T06:12:40;52.50;;;35.70;;
48629;SDS011;34426;52.180;4.462;2024-03-08T06:15:06;49.80;;;35.72;;
48629;SDS011;34426;52.180;4.462;2024-03-08T06:17:32;51.47;;;36.05;;
48629;SDS011;34426;52.180;4.462;2024-03-08T06:19:58;48.33;;;34.25;;
48629;SDS011;34426;52.180;4.462;2024-03-08T06:22:24;55.17;;;36.33;;
48629;SDS011;34426;52.180;4.462;2024-03-08T06:24:49;49.55;;;34.40;;
48629;SDS011;34426;52.180;4.462;2024-03-08T06:27:15;50.13;;;35.35;;
48629;SDS011;34426;52.180;4.462;2024-03-08T06:29:40;45.20;;;34.88;;
48629;SDS011;34426;52.180;4.462;2024-03-08T06:32:06;52.33;;;35.72;;
48629;SDS011;34426;52.180;4.462;2024-03-08T06:34:32;59.30;;;36.47;;
48629;SDS011;34426;52.180;4.462;2024-03-08T06:36:59;56.55;;;36.47;;
48629;SDS011;34426;52.180;4.462;2024-03-08T06:39:24;57.72;;;35.72;;
48629;SDS011;34426;52.180;4.462;2024-03-08T06:41:50;66.65;;;36.83;;
48629;SDS011;34426;52.180;4.462;2024-03-08T06:44:15;53.70;;;34.65;;
48629;SDS011;34426;52.180;4.462;2024-03-08T06:46:41;47.10;;;33.72;;
48629;SDS011;34426;52.180;4.462;2024-03-08T06:49:06;58.97;;;35.33;;
48629;SDS011;34426;52.180;4.462;2024-03-08T06:51:32;50.63;;;35.53;;
48629;SDS011;34426;52.180;4.462;2024-03-08T06:53:59;47.03;;;34.92;;
48629;SDS011;34426;52.180;4.462;2024-03-08T06:56:24;51.65;;;34.60;;
48629;SDS011;34426;52.180;4.462;2024-03-08T06:58:49;52.35;;;33.92;;
48629;SDS011;34426;52.180;4.462;2024-03-08T07:01:15;45.13;;;34.22;;
48629;SDS011;34426;52.180;4.462;2024-03-08T07:03:41;48.22;;;33.38;;
48629;SDS011;34426;52.180;4.462;2024-03-08T07:06:07;49.80;;;34.10;;
48629;SDS011;34426;52.180;4.462;2024-03-08T07:08:32;50.00;;;34.00;;
48629;SDS011;34426;52.180;4.462;2024-03-08T07:10:59;51.85;;;32.75;;
48629;SDS011;34426;52.180;4.462;2024-03-08T07:13:24;48.33;;;34.35;;
48629;SDS011;34426;52.180;4.462;2024-03-08T07:15:50;50.15;;;32.78;;
48629;SDS011;34426;52.180;4.462;2024-03-08T07:18:15;48.20;;;31.45;;
48629;SDS011;34426;52.180;4.462;2024-03-08T07:20:41;47.80;;;34.47;;
48629;SDS011;34426;52.180;4.462;2024-03-08T07:23:07;46.72;;;32.13;;
48629;SDS011;34426;52.180;4.462;2024-03-08T07:25:32;44.97;;;31.63;;
48629;SDS011;34426;52.180;4.462;2024-03-08T07:27:59;44.92;;;31.08;;
48629;SDS011;34426;52.180;4.462;2024-03-08T07:30:25;41.90;;;31.73;;
48629;SDS011;34426;52.180;4.462;2024-03-08T07:32:52;47.83;;;32.42;;
48629;SDS011;34426;52.180;4.462;2024-03-08T07:35:18;42.92;;;30.95;;
48629;SDS011;34426;52.180;4.462;2024-03-08T07:37:44;63.72;;;32.78;;
48629;SDS011;34426;52.180;4.462;2024-03-08T07:40:12;43.08;;;31.77;;
48629;SDS011;34426;52.180;4.462;2024-03-08T07:42:38;47.30;;;31.30;;
48629;SDS011;34426;52.180;4.462;2024-03-08T07:45:06;49.00;;;32.97;;
48629;SDS011;34426;52.180;4.462;2024-03-08T07:47:32;45.88;;;32.85;;
48629;SDS011;34426;52.180;4.462;2024-03-08T07:49:57;49.08;;;32.45;;
48629;SDS011;34426;52.180;4.462;2024-03-08T07:52:23;47.53;;;32.10;;
48629;SDS011;34426;52.180;4.462;2024-03-08T07:54:48;42.35;;;30.45;;
48629;SDS011;34426;52.180;4.462;2024-03-08T07:57:14;42.20;;;30.35;;
48629;SDS011;34426;52.180;4.462;2024-03-08T07:59:39;39.53;;;29.90;;
48629;SDS011;34426;52.180;4.462;2024-03-08T08:02:06;44.72;;;31.25;;
48629;SDS011;34426;52.180;4.462;2024-03-08T08:04:32;43.97;;;31.65;;
48629;SDS011;34426;52.180;4.462;2024-03-08T08:06:57;44.72;;;32.25;;
48629;SDS011;34426;52.180;4.462;2024-03-08T08:09:23;52.63;;;30.85;;
48629;SDS011;34426;52.180;4.462;2024-03-08T08:11:48;43.13;;;30.08;;
48629;SDS011;34426;52.180;4.462;2024-03-08T08:14:13;44.63;;;31.00;;
48629;SDS011;34426;52.180;4.462;2024-03-08T08:16:39;44.17;;;29.35;;
48629;SDS011;34426;52.180;4.462;2024-03-08T08:19:06;41.90;;;29.13;;
48629;SDS011;34426;52.180;4.462;2024-03-08T08:21:31;41.03;;;30.10;;
48629;SDS011;34426;52.180;4.462;2024-03-08T08:23:57;40.75;;;30.40;;
48629;SDS011;34426;52.180;4.462;2024-03-08T08:26:22;41.33;;;30.45;;
48629;SDS011;34426;52.180;4.462;2024-03-08T08:28:48;41.85;;;29.58;;
48629;SDS011;34426;52.180;4.462;2024-03-08T08:31:13;40.45;;;29.88;;
48629;SDS011;34426;52.180;4.462;2024-03-08T08:33:39;46.38;;;28.85;;
48629;SDS011;34426;52.180;4.462;2024-03-08T08:36:06;38.58;;;29.17;;
48629;SDS011;34426;52.180;4.462;2024-03-08T08:38:32;38.72;;;28.65;;
48629;SDS011;34426;52.180;4.462;2024-03-08T08:40:57;45.47;;;29.85;;
48629;SDS011;34426;52.180;4.462;2024-03-08T08:43:23;39.58;;;29.60;;
48629;SDS011;34426;52.180;4.462;2024-03-08T08:45:48;45.25;;;28.63;;
48629;SDS011;34426;52.180;4.462;2024-03-08T08:48:14;41.42;;;29.38;;
48629;SDS011;34426;52.180;4.462;2024-03-08T08:50:39;42.97;;;30.02;;
48629;SDS011;34426;52.180;4.462;2024-03-08T08:53:06;44.90;;;28.27;;
48629;SDS011;34426;52.180;4.462;2024-03-08T08:55:32;41.83;;;30.02;;
48629;SDS011;34426;52.180;4.462;2024-03-08T08:57:57;41.00;;;28.65;;
48629;SDS011;34426;52.180;4.462;2024-03-08T09:00:23;39.67;;;29.75;;
48629;SDS011;34426;52.180;4.462;2024-03-08T09:02:48;43.90;;;28.83;;
48629;SDS011;34426;52.180;4.462;2024-03-08T09:05:14;41.55;;;28.67;;
48629;SDS011;34426;52.180;4.462;2024-03-08T09:07:39;40.92;;;29.83;;
48629;SDS011;34426;52.180;4.462;2024-03-08T09:10:07;41.67;;;30.33;;
48629;SDS011;34426;52.180;4.462;2024-03-08T09:12:32;44.38;;;28.00;;
48629;SDS011;34426;52.180;4.462;2024-03-08T09:14:58;42.25;;;28.77;;
48629;SDS011;34426;52.180;4.462;2024-03-08T09:17:23;40.95;;;27.95;;
48629;SDS011;34426;52.180;4.462;2024-03-08T09:19:49;44.92;;;29.65;;
48629;SDS011;34426;52.180;4.462;2024-03-08T09:22:14;39.55;;;29.02;;
48629;SDS011;34426;52.180;4.462;2024-03-08T09:24:40;36.85;;;27.38;;
48629;SDS011;34426;52.180;4.462;2024-03-08T09:27:06;38.70;;;29.30;;
48629;SDS011;34426;52.180;4.462;2024-03-08T09:29:32;41.97;;;28.52;;
48629;SDS011;34426;52.180;4.462;2024-03-08T09:31:57;39.67;;;28.33;;
48629;SDS011;34426;52.180;4.462;2024-03-08T09:34:23;37.35;;;27.67;;
48629;SDS011;34426;52.180;4.462;2024-03-08T09:36:48;38.38;;;28.15;;
48629;SDS011;34426;52.180;4.462;2024-03-08T09:39:14;37.83;;;28.85;;
48629;SDS011;34426;52.180;4.462;2024-03-08T09:41:39;36.25;;;27.58;;
48629;SDS011;34426;52.180;4.462;2024-03-08T09:44:06;37.05;;;26.48;;
48629;SDS011;34426;52.180;4.462;2024-03-08T09:46:32;37.05;;;27.17;;
48629;SDS011;34426;52.180;4.462;2024-03-08T09:48:58;37.65;;;28.13;;
48629;SDS011;34426;52.180;4.462;2024-03-08T09:51:25;43.10;;;28.92;;
48629;SDS011;34426;52.180;4.462;2024-03-08T09:53:53;36.55;;;28.08;;
48629;SDS011;34426;52.180;4.462;2024-03-08T09:56:18;37.05;;;26.10;;
48629;SDS011;34426;52.180;4.462;2024-03-08T09:58:44;36.83;;;27.85;;
48629;SDS011;34426;52.180;4.462;2024-03-08T10:01:11;37.70;;;26.77;;
48629;SDS011;34426;52.180;4.462;2024-03-08T10:03:37;39.72;;;28.23;;
48629;SDS011;34426;52.180;4.462;2024-03-08T10:06:03;38.90;;;25.85;;
48629;SDS011;34426;52.180;4.462;2024-03-08T10:08:29;36.13;;;26.50;;
48629;SDS011;34426;52.180;4.462;2024-03-08T10:10:55;39.00;;;25.02;;
48629;SDS011;34426;52.180;4.462;2024-03-08T10:13:20;34.97;;;24.92;;
48629;SDS011;34426;52.180;4.462;2024-03-08T10:15:46;41.42;;;25.90;;
48629;SDS011;34426;52.180;4.462;2024-03-08T10:18:13;36.72;;;26.45;;
48629;SDS011;34426;52.180;4.462;2024-03-08T10:20:38;36.80;;;25.92;;
48629;SDS011;34426;52.180;4.462;2024-03-08T10:23:04;36.47;;;25.88;;
48629;SDS011;34426;52.180;4.462;2024-03-08T10:25:31;35.63;;;26.30;;
48629;SDS011;34426;52.180;4.462;2024-03-08T10:27:57;37.05;;;25.92;;
48629;SDS011;34426;52.180;4.462;2024-03-08T10:30:23;34.45;;;23.75;;
48629;SDS011;34426;52.180;4.462;2024-03-08T10:32:48;33.10;;;25.65;;
48629;SDS011;34426;52.180;4.462;2024-03-08T10:35:16;36.72;;;25.38;;
48629;SDS011;34426;52.180;4.462;2024-03-08T10:37:44;33.35;;;24.50;;
48629;SDS011;34426;52.180;4.462;2024-03-08T10:40:10;33.72;;;24.42;;
48629;SDS011;34426;52.180;4.462;2024-03-08T10:42:43;38.33;;;25.45;;
48629;SDS011;34426;52.180;4.462;2024-03-08T10:45:19;36.72;;;25.05;;
48629;SDS011;34426;52.180;4.462;2024-03-08T10:47:59;32.65;;;23.95;;
48629;SDS011;34426;52.180;4.462;2024-03-08T10:50:34;35.35;;;25.23;;
48629;SDS011;34426;52.180;4.462;2024-03-08T10:53:01;37.15;;;23.50;;
48629;SDS011;34426;52.180;4.462;2024-03-08T10:55:31;35.42;;;24.30;;
48629;SDS011;34426;52.180;4.462;2024-03-08T10:57:58;43.33;;;24.50;;
48629;SDS011;34426;52.180;4.462;2024-03-08T11:00:23;38.33;;;23.73;;
48629;SDS011;34426;52.180;4.462;2024-03-08T11:02:49;31.45;;;23.83;;
48629;SDS011;34426;52.180;4.462;2024-03-08T11:05:16;30.83;;;23.95;;
48629;SDS011;34426;52.180;4.462;2024-03-08T11:07:58;36.80;;;23.98;;
48629;SDS011;34426;52.180;4.462;2024-03-08T11:10:24;29.60;;;23.38;;
48629;SDS011;34426;52.180;4.462;2024-03-08T11:12:49;29.35;;;22.70;;
48629;SDS011;34426;52.180;4.462;2024-03-08T11:15:15;29.67;;;22.33;;
48629;SDS011;34426;52.180;4.462;2024-03-08T11:17:42;34.28;;;24.85;;
48629;SDS011;34426;52.180;4.462;2024-03-08T11:20:10;35.20;;;23.67;;
48629;SDS011;34426;52.180;4.462;2024-03-08T11:22:37;31.88;;;22.48;;
48629;SDS011;34426;52.180;4.462;2024-03-08T11:25:07;32.50;;;21.98;;
48629;SDS011;34426;52.180;4.462;2024-03-08T11:27:34;30.27;;;21.45;;
48629;SDS011;34426;52.180;4.462;2024-03-08T11:30:00;26.85;;;22.27;;
48629;SDS011;34426;52.180;4.462;2024-03-08T11:32:27;31.60;;;21.40;;
48629;SDS011;34426;52.180;4.462;2024-03-08T11:34:54;31.05;;;22.00;;
48629;SDS011;34426;52.180;4.462;2024-03-08T11:37:21;29.00;;;21.90;;
48629;SDS011;34426;52.180;4.462;2024-03-08T11:39:47;26.48;;;19.92;;
48629;SDS011;34426;52.180;4.462;2024-03-08T11:42:14;27.90;;;20.60;;
48629;SDS011;34426;52.180;4.462;2024-03-08T11:44:40;28.30;;;20.08;;
48629;SDS011;34426;52.180;4.462;2024-03-08T11:47:07;24.20;;;19.55;;
48629;SDS011;34426;52.180;4.462;2024-03-08T11:49:33;25.27;;;20.27;;
48629;SDS011;34426;52.180;4.462;2024-03-08T11:51:59;28.92;;;19.40;;
48629;SDS011;34426;52.180;4.462;2024-03-08T11:54:24;31.83;;;20.90;;
48629;SDS011;34426;52.180;4.462;2024-03-08T11:56:51;32.78;;;21.02;;
48629;SDS011;34426;52.180;4.462;2024-03-08T11:59:18;28.30;;;21.50;;
48629;SDS011;34426;52.180;4.462;2024-03-08T12:01:43;24.40;;;20.23;;
48629;SDS011;34426;52.180;4.462;2024-03-08T12:04:24;28.85;;;20.00;;
48629;SDS011;34426;52.180;4.462;2024-03-08T12:06:50;29.60;;;20.67;;
48629;SDS011;34426;52.180;4.462;2024-03-08T12:09:15;25.15;;;19.75;;
48629;SDS011;34426;52.180;4.462;2024-03-08T12:11:41;26.65;;;19.67;;
48629;SDS011;34426;52.180;4.462;2024-03-08T12:14:06;24.60;;;19.85;;
48629;SDS011;34426;52.180;4.462;2024-03-08T12:16:34;25.95;;;20.33;;
48629;SDS011;34426;52.180;4.462;2024-03-08T12:19:01;31.45;;;20.52;;
48629;SDS011;34426;52.180;4.462;2024-03-08T12:21:27;24.67;;;19.67;;
48629;SDS011;34426;52.180;4.462;2024-03-08T12:24:03;29.38;;;19.38;;
48629;SDS011;34426;52.180;4.462;2024-03-08T12:26:30;25.75;;;19.50;;
48629;SDS011;34426;52.180;4.462;2024-03-08T12:29:13;24.30;;;19.48;;
48629;SDS011;34426;52.180;4.462;2024-03-08T12:31:41;23.95;;;18.80;;
48629;SDS011;34426;52.180;4.462;2024-03-08T12:34:07;24.45;;;20.30;;
48629;SDS011;34426;52.180;4.462;2024-03-08T12:36:33;30.75;;;18.27;;
48629;SDS011;34426;52.180;4.462;2024-03-08T12:38:59;24.67;;;18.58;;
48629;SDS011;34426;52.180;4.462;2024-03-08T12:41:24;27.25;;;19.00;;
48629;SDS011;34426;52.180;4.462;2024-03-08T12:43:50;24.98;;;17.92;;
48629;SDS011;34426;52.180;4.462;2024-03-08T12:46:15;23.40;;;18.27;;
48629;SDS011;34426;52.180;4.462;2024-03-08T12:48:42;25.52;;;19.17;;
48629;SDS011;34426;52.180;4.462;2024-03-08T12:51:08;23.00;;;17.80;;
48629;SDS011;34426;52.180;4.462;2024-03-08T12:53:34;27.48;;;19.30;;
48629;SDS011;34426;52.180;4.462;2024-03-08T12:55:59;21.42;;;16.60;;
48629;SDS011;34426;52.180;4.462;2024-03-08T12:58:25;16.50;;;14.10;;
48629;SDS011;34426;52.180;4.462;2024-03-08T13:00:50;20.08;;;14.75;;
48629;SDS011;34426;52.180;4.462;2024-03-08T13:03:16;18.83;;;13.93;;
48629;SDS011;34426;52.180;4.462;2024-03-08T13:05:43;19.77;;;14.45;;
48629;SDS011;34426;52.180;4.462;2024-03-08T13:08:08;21.65;;;14.57;;
48629;SDS011;34426;52.180;4.462;2024-03-08T13:10:34;22.45;;;16.45;;
48629;SDS011;34426;52.180;4.462;2024-03-08T13:13:00;24.55;;;16.23;;
48629;SDS011;34426;52.180;4.462;2024-03-08T13:15:25;22.95;;;15.82;;
48629;SDS011;34426;52.180;4.462;2024-03-08T13:17:51;27.70;;;16.23;;
48629;SDS011;34426;52.180;4.462;2024-03-08T13:20:16;23.83;;;16.73;;
48629;SDS011;34426;52.180;4.462;2024-03-08T13:22:43;20.88;;;16.35;;
48629;SDS011;34426;52.180;4.462;2024-03-08T13:25:10;24.60;;;15.85;;
48629;SDS011;34426;52.180;4.462;2024-03-08T13:27:35;25.58;;;17.60;;
48629;SDS011;34426;52.180;4.462;2024-03-08T13:30:00;24.10;;;17.33;;
48629;SDS011;34426;52.180;4.462;2024-03-08T13:32:26;27.83;;;16.80;;
48629;SDS011;34426;52.180;4.462;2024-03-08T13:34:51;28.33;;;17.40;;
48629;SDS011;34426;52.180;4.462;2024-03-08T13:37:18;24.80;;;18.10;;
48629;SDS011;34426;52.180;4.462;2024-03-08T13:39:46;28.35;;;16.75;;
48629;SDS011;34426;52.180;4.462;2024-03-08T13:42:11;17.90;;;15.38;;
48629;SDS011;34426;52.180;4.462;2024-03-08T13:44:43;22.92;;;17.50;;
48629;SDS011;34426;52.180;4.462;2024-03-08T13:47:09;24.48;;;16.40;;
48629;SDS011;34426;52.180;4.462;2024-03-08T13:49:35;22.25;;;16.83;;
48629;SDS011;34426;52.180;4.462;2024-03-08T13:52:00;20.75;;;15.63;;
48629;SDS011;34426;52.180;4.462;2024-03-08T13:54:26;20.33;;;16.17;;
48629;SDS011;34426;52.180;4.462;2024-03-08T13:56:55;24.45;;;16.17;;
48629;SDS011;34426;52.180;4.462;2024-03-08T13:59:21;23.30;;;16.65;;
48629;SDS011;34426;52.180;4.462;2024-03-08T14:01:46;19.98;;;15.85;;
48629;SDS011;34426;52.180;4.462;2024-03-08T14:04:12;17.73;;;15.57;;
48629;SDS011;34426;52.180;4.462;2024-03-08T14:06:37;23.45;;;16.13;;
48629;SDS011;34426;52.180;4.462;2024-03-08T14:09:03;26.67;;;16.33;;
48629;SDS011;34426;52.180;4.462;2024-03-08T14:11:28;18.83;;;15.45;;
48629;SDS011;34426;52.180;4.462;2024-03-08T14:13:55;20.65;;;16.05;;